createdAt,value
2023-04-06T00:03:24.983Z,5.85
2023-04-06T00:07:27.118Z,5.78
2023-04-06T00:11:28.697Z,5.59
2023-04-06T00:15:30.527Z,5.55
2023-04-06T00:19:32.321Z,5.47
2023-04-06T00:23:33.935Z,5.44
2023-04-06T00:27:35.484Z,5.45
2023-04-06T00:31:37.204Z,5.45
2023-04-06T00:35:39.765Z,5.45
2023-04-06T00:39:41.451Z,5.45
2023-04-06T00:43:43.185Z,5.47
2023-04-06T00:47:44.783Z,5.47
2023-04-06T00:51:46.420Z,5.47
2023-04-06T00:55:49.095Z,5.47
2023-04-06T00:59:51.328Z,5.40
2023-04-06T01:03:54.276Z,5.37
2023-04-06T01:07:56.583Z,5.32
2023-04-06T01:12:01.992Z,5.30
2023-04-06T01:16:06.672Z,5.30
2023-04-06T01:20:20.739Z,5.33
2023-04-06T01:24:22.870Z,5.38
2023-04-06T01:28:40.570Z,5.40
2023-04-06T01:32:57.307Z,5.41
2023-04-06T01:37:33.582Z,5.42
2023-04-06T01:41:38.280Z,5.42
2023-04-06T01:45:40.391Z,5.41
2023-04-06T01:49:51.096Z,5.38
2023-04-06T01:53:56.179Z,5.37
2023-04-06T01:58:05.421Z,5.33
2023-04-06T02:02:13.934Z,5.26
2023-04-06T02:06:19.749Z,5.24
2023-04-06T02:10:23.073Z,5.22
2023-04-06T02:14:26.740Z,5.14
2023-04-06T02:18:32.171Z,4.90
2023-04-06T02:22:33.726Z,4.83
2023-04-06T02:26:35.400Z,4.65
2023-04-06T02:30:36.973Z,4.62
2023-04-06T02:34:40.209Z,4.64
2023-04-06T02:38:41.978Z,4.64
2023-04-06T02:42:43.643Z,4.64
2023-04-06T02:46:47.030Z,4.64
2023-04-06T02:50:48.740Z,4.68
2023-04-06T02:54:52.118Z,4.67
2023-04-06T02:58:59.923Z,4.69
2023-04-06T03:03:05.088Z,4.68
2023-04-06T03:07:06.971Z,4.67
2023-04-06T03:11:12.269Z,4.62
2023-04-06T03:15:16.663Z,4.65
2023-04-06T03:19:23.717Z,4.64
2023-04-06T03:23:25.810Z,4.59
2023-04-06T03:27:34.659Z,4.56
2023-04-06T03:31:37.917Z,4.57
2023-04-06T03:35:54.872Z,4.54
2023-04-06T03:39:59.304Z,4.53
2023-04-06T03:44:01.182Z,4.51
2023-04-06T03:48:03.176Z,4.49
2023-04-06T03:52:07.683Z,4.43
2023-04-06T03:56:09.359Z,4.43
2023-04-06T04:00:11.662Z,4.42
2023-04-06T04:04:16.418Z,4.43
2023-04-06T04:08:18.008Z,4.36
2023-04-06T04:12:19.824Z,4.34
2023-04-06T04:16:21.466Z,4.28
2023-04-06T04:20:23.232Z,4.25
2023-04-06T04:24:25.139Z,4.21
2023-04-06T04:28:26.822Z,4.20
2023-04-06T04:32:31.433Z,4.18
2023-04-06T04:36:35.261Z,4.18
2023-04-06T04:40:41.253Z,4.20
2023-04-06T04:44:44.873Z,4.14
2023-04-06T04:48:46.880Z,4.10
2023-04-06T04:52:49.334Z,4.02
2023-04-06T04:56:59.710Z,4.02
2023-04-06T05:01:13.154Z,3.99
2023-04-06T05:05:16.859Z,3.96
2023-04-06T05:09:18.923Z,3.92
2023-04-06T05:13:21.105Z,3.92
2023-04-06T05:17:24.791Z,3.93
2023-04-06T05:21:28.744Z,3.92
2023-04-06T05:25:34.999Z,3.90
2023-04-06T05:29:47.098Z,3.84
2023-04-06T05:33:50.704Z,3.84
2023-04-06T05:38:00.409Z,3.89
2023-04-06T05:42:06.627Z,3.89
2023-04-06T05:46:22.686Z,3.89
2023-04-06T05:50:25.038Z,3.95
2023-04-06T05:54:27.026Z,3.96
2023-04-06T05:58:34.822Z,3.99
2023-04-06T06:02:37.856Z,4.04
2023-04-06T06:06:39.999Z,4.11
2023-04-06T06:10:53.803Z,4.14
2023-04-06T06:14:58.203Z,4.18
2023-04-06T06:19:02.243Z,4.25
2023-04-06T06:23:04.418Z,4.31
2023-04-06T06:27:08.696Z,4.39
2023-04-06T06:31:12.127Z,4.46
2023-04-06T06:35:14.083Z,4.47
2023-04-06T06:39:15.772Z,4.51
2023-04-06T06:43:18.098Z,4.57
2023-04-06T06:47:27.193Z,4.61
2023-04-06T06:51:28.964Z,4.68
2023-04-06T06:55:30.887Z,4.67
2023-04-06T06:59:32.829Z,4.68
2023-04-06T07:03:35.639Z,4.74
2023-04-06T07:07:37.409Z,4.74
2023-04-06T07:11:39.238Z,4.84
2023-04-06T07:15:41.210Z,4.91
2023-04-06T07:19:42.993Z,4.96
2023-04-06T07:23:45.261Z,5.06
2023-04-06T07:27:46.859Z,5.15
2023-04-06T07:31:50.106Z,5.27
2023-04-06T07:35:53.386Z,5.38
2023-04-06T07:39:55.268Z,5.49
2023-04-06T07:43:57.236Z,5.62
2023-04-06T07:47:59.023Z,5.67
2023-04-06T07:52:03.976Z,5.73
2023-04-06T07:56:06.601Z,5.77
2023-04-06T08:00:10.676Z,5.88
2023-04-06T08:04:15.308Z,6.03
2023-04-06T08:08:17.316Z,6.17
2023-04-06T08:12:18.972Z,6.27
2023-04-06T08:16:20.773Z,6.39
2023-04-06T08:20:22.348Z,6.51
2023-04-06T08:24:23.938Z,6.72
2023-04-06T08:28:25.628Z,6.91
2023-04-06T08:32:27.232Z,7.00
2023-04-06T08:36:28.861Z,7.12
2023-04-06T08:40:30.713Z,7.21
2023-04-06T08:44:33.501Z,7.34
2023-04-06T08:48:36.319Z,7.54
2023-04-06T08:52:38.975Z,7.66
2023-04-06T08:56:41.291Z,7.81
2023-04-06T09:00:43.236Z,7.91
2023-04-06T09:04:48.926Z,8.07
2023-04-06T09:08:50.581Z,8.24
2023-04-06T09:12:52.248Z,8.42
2023-04-06T09:16:53.825Z,8.55
2023-04-06T09:21:08.986Z,8.67
2023-04-06T09:25:11.661Z,8.80
2023-04-06T09:29:24.771Z,8.93
2023-04-06T09:33:26.500Z,9.04
2023-04-06T09:37:29.112Z,9.20
2023-04-06T09:41:33.073Z,9.35
2023-04-06T09:45:34.846Z,9.50
2023-04-06T09:49:36.565Z,9.65
2023-04-06T09:53:42.782Z,9.83
2023-04-06T09:57:53.725Z,10.01
2023-04-06T10:01:58.010Z,10.17
2023-04-06T10:06:06.326Z,10.31
2023-04-06T10:10:09.136Z,10.46
2023-04-06T10:14:12.711Z,10.60
2023-04-06T10:18:14.907Z,10.70
2023-04-06T10:22:27.489Z,10.80
2023-04-06T10:26:29.240Z,10.93
2023-04-06T10:30:31.036Z,11.02
2023-04-06T10:34:36.691Z,11.23
2023-04-06T10:38:41.716Z,11.45
2023-04-06T10:42:43.627Z,11.69
2023-04-06T10:46:56.962Z,11.81
2023-04-06T10:50:58.580Z,11.88
2023-04-06T10:55:00.506Z,12.00
2023-04-06T10:59:02.213Z,12.12
2023-04-06T11:03:04.296Z,12.31
2023-04-06T11:07:06.312Z,12.54
2023-04-06T11:11:10.640Z,12.81
2023-04-06T11:15:12.273Z,12.98
2023-04-06T11:19:13.854Z,13.14
2023-04-06T11:23:23.769Z,13.31
2023-04-06T11:27:26.437Z,13.41
2023-04-06T11:31:28.124Z,13.39
2023-04-06T11:35:32.308Z,13.44
2023-04-06T11:39:44.383Z,13.50
2023-04-06T11:43:48.856Z,13.53
2023-04-06T11:48:02.335Z,13.65
2023-04-06T11:52:04.072Z,13.71
2023-04-06T11:56:05.961Z,13.76
2023-04-06T12:00:10.425Z,14.01
2023-04-06T12:04:12.070Z,14.21
2023-04-06T12:08:13.721Z,14.24
2023-04-06T12:12:15.453Z,14.29
2023-04-06T12:16:17.380Z,14.29
2023-04-06T12:20:26.444Z,14.24
2023-04-06T12:24:29.672Z,14.27
2023-04-06T12:28:31.359Z,14.48
2023-04-06T12:32:33.026Z,14.61
2023-04-06T12:36:34.795Z,14.74
2023-04-06T12:40:40.052Z,14.75
2023-04-06T12:44:43.552Z,14.85
2023-04-06T12:48:45.538Z,14.94
2023-04-06T12:52:48.255Z,15.20
2023-04-06T12:56:49.877Z,15.46
2023-04-06T13:00:51.773Z,15.58
2023-04-06T13:04:53.485Z,15.66
2023-04-06T13:08:55.841Z,15.71
2023-04-06T13:12:57.443Z,15.71
2023-04-06T13:16:59.042Z,15.56
2023-04-06T13:21:00.788Z,15.55
2023-04-06T13:25:02.422Z,15.53
2023-04-06T13:29:04.193Z,15.53
2023-04-06T13:33:07.327Z,15.49
2023-04-06T13:37:09.005Z,15.58
2023-04-06T13:41:10.790Z,15.56
2023-04-06T13:45:12.708Z,15.59
2023-04-06T13:49:14.811Z,15.53
2023-04-06T13:53:16.830Z,15.46
2023-04-06T13:57:18.376Z,15.43
2023-04-06T14:01:20.061Z,15.56
2023-04-06T14:05:22.282Z,15.49
2023-04-06T14:09:23.907Z,15.51
2023-04-06T14:13:25.479Z,15.41
2023-04-06T14:17:27.090Z,15.35
2023-04-06T14:21:28.739Z,15.46
2023-04-06T14:25:32.453Z,15.46
2023-04-06T14:29:34.091Z,15.46
2023-04-06T14:33:36.180Z,15.56
2023-04-06T14:37:37.840Z,15.53
2023-04-06T14:41:39.371Z,15.60
2023-04-06T14:45:41.065Z,15.56
2023-04-06T14:49:42.649Z,15.60
2023-04-06T14:53:44.592Z,15.62
2023-04-06T14:57:46.337Z,15.62
2023-04-06T15:01:48.013Z,15.66
2023-04-06T15:05:49.654Z,15.71
2023-04-06T15:09:51.247Z,15.73
2023-04-06T15:13:52.743Z,15.64
2023-04-06T15:17:54.438Z,15.49
2023-04-06T15:21:56.154Z,15.51
2023-04-06T15:25:58.748Z,15.48
2023-04-06T15:30:00.493Z,15.40
2023-04-06T15:34:02.059Z,15.34
2023-04-06T15:38:03.632Z,15.22
2023-04-06T15:42:05.290Z,15.18
2023-04-06T15:50:10.249Z,14.90
2023-04-06T15:54:11.769Z,14.82
2023-04-06T15:58:13.379Z,14.72
2023-04-06T16:02:15.108Z,14.60
2023-04-06T16:06:16.833Z,14.56
2023-04-06T16:10:18.365Z,14.53
2023-04-06T16:14:19.934Z,14.48
2023-04-06T16:18:21.516Z,14.46
2023-04-06T16:22:23.093Z,14.38
2023-04-06T16:26:24.703Z,14.34
2023-04-06T16:30:26.649Z,14.26
2023-04-06T16:34:32.799Z,14.11
2023-04-06T16:38:35.712Z,13.98
2023-04-06T16:42:37.966Z,13.86
2023-04-06T16:46:39.732Z,13.73
2023-04-06T16:50:41.405Z,13.71
2023-04-06T16:54:42.986Z,13.72
2023-04-06T16:58:46.038Z,13.68
2023-04-06T17:02:47.862Z,13.51
2023-04-06T17:06:50.012Z,13.50
2023-04-06T17:10:59.155Z,13.48
2023-04-06T17:15:04.696Z,13.44
2023-04-06T17:19:06.349Z,13.35
2023-04-06T17:23:07.872Z,13.29
2023-04-06T17:27:09.458Z,13.25
2023-04-06T17:31:12.372Z,13.22
2023-04-06T17:35:14.010Z,13.19
2023-04-06T17:39:15.557Z,13.10
2023-04-06T17:43:17.141Z,13.07
2023-04-06T17:47:18.710Z,12.96
2023-04-06T17:51:21.494Z,12.92
2023-04-06T17:55:23.162Z,12.88
2023-04-06T17:59:24.640Z,12.79
2023-04-06T18:03:26.230Z,12.73
2023-04-06T18:07:27.927Z,12.66
2023-04-06T18:11:31.058Z,12.51
2023-04-06T18:15:35.142Z,12.44
2023-04-06T18:19:36.716Z,12.23
2023-04-06T18:23:38.584Z,12.12
2023-04-06T18:27:40.378Z,12.08
2023-04-06T18:31:43.697Z,12.11
2023-04-06T18:35:45.349Z,11.90
2023-04-06T18:39:46.934Z,11.85
2023-04-06T18:43:49.230Z,11.78
2023-04-06T18:47:51.007Z,11.67
2023-04-06T18:51:53.625Z,11.46
2023-04-06T18:55:59.180Z,11.46
2023-04-06T19:00:03.294Z,11.45
2023-04-06T19:04:05.128Z,11.41
2023-04-06T19:08:06.781Z,11.31
2023-04-06T19:12:08.482Z,11.31
2023-04-06T19:16:10.902Z,11.38
2023-04-06T19:20:12.625Z,11.36
2023-04-06T19:24:14.251Z,11.31
2023-04-06T19:28:15.904Z,11.33
2023-04-06T19:32:17.631Z,11.33
2023-04-06T19:36:19.519Z,11.33
2023-04-06T19:40:21.319Z,11.35
2023-04-06T19:44:23.559Z,11.31
2023-04-06T19:48:25.613Z,11.28
2023-04-06T19:52:28.167Z,11.24
2023-04-06T19:56:31.427Z,11.20
2023-04-06T20:00:33.136Z,11.21
2023-04-06T20:04:35.381Z,11.17
2023-04-06T20:08:37.043Z,11.13
2023-04-06T20:12:39.128Z,11.12
2023-04-06T20:16:41.031Z,11.08
2023-04-06T20:20:44.609Z,11.06
2023-04-06T20:24:46.441Z,11.03
2023-04-06T20:28:48.523Z,10.99
2023-04-06T20:32:50.234Z,10.93
2023-04-06T20:36:51.948Z,10.88
2023-04-06T20:40:54.216Z,10.87
2023-04-06T20:44:56.990Z,10.84
2023-04-06T20:48:59.246Z,10.81
2023-04-06T20:53:00.826Z,10.78
2023-04-06T20:57:02.814Z,10.66
2023-04-06T21:01:04.378Z,10.65
2023-04-06T21:05:06.464Z,10.62
2023-04-06T21:09:08.110Z,10.54
2023-04-06T21:13:09.735Z,10.47
2023-04-06T21:17:11.604Z,10.44
2023-04-06T21:21:13.237Z,10.43
2023-04-06T21:25:15.270Z,10.38
2023-04-06T21:29:16.972Z,10.34
2023-04-06T21:33:18.693Z,10.29
2023-04-06T21:37:20.320Z,10.25
2023-04-06T21:41:21.914Z,10.17
2023-04-06T21:45:23.529Z,10.13
2023-04-06T21:49:25.171Z,10.11
2023-04-06T21:53:26.833Z,10.07
2023-04-06T21:57:28.393Z,10.07
2023-04-06T22:01:30.044Z,10.02
2023-04-06T22:05:32.269Z,9.98
2023-04-06T22:09:33.900Z,9.93
2023-04-06T22:13:36.179Z,9.89
2023-04-06T22:17:37.780Z,9.88
2023-04-06T22:21:39.479Z,9.85
2023-04-06T22:25:41.030Z,9.86
2023-04-06T22:29:42.630Z,9.88
2023-04-06T22:33:44.184Z,9.88
2023-04-06T22:37:45.835Z,9.86
2023-04-06T22:41:47.414Z,9.83
2023-04-06T22:45:49.006Z,9.81
2023-04-06T22:49:50.630Z,9.78
2023-04-06T22:53:52.158Z,9.81
2023-04-06T22:57:53.714Z,9.78
2023-04-06T23:01:56.770Z,9.78
2023-04-06T23:05:58.432Z,9.78
2023-04-06T23:10:00.409Z,9.74
2023-04-06T23:14:02.002Z,9.74
2023-04-06T23:18:03.805Z,9.75
2023-04-06T23:22:05.452Z,9.74
2023-04-06T23:26:07.201Z,9.73
2023-04-06T23:30:09.517Z,9.65
2023-04-06T23:34:11.096Z,9.65
2023-04-06T23:38:12.715Z,9.59
2023-04-06T23:42:14.272Z,9.56
2023-04-06T23:46:17.052Z,9.52
2023-04-06T23:50:18.655Z,9.45
2023-04-06T23:54:20.246Z,9.41
2023-04-06T23:58:21.869Z,9.42
